createdAt,value
2017-09-13T00:01:32.422Z,95.50
2017-09-13T00:03:59.876Z,95.30
2017-09-13T00:06:27.351Z,95.40
2017-09-13T00:08:54.774Z,95.50
2017-09-13T00:11:22.206Z,95.60
2017-09-13T00:13:50.438Z,95.50
2017-09-13T00:16:17.873Z,95.50
2017-09-13T00:18:45.910Z,95.40
2017-09-13T00:21:14.146Z,95.70
2017-09-13T00:23:41.564Z,95.70
2017-09-13T00:26:09.777Z,95.60
2017-09-13T00:28:37.206Z,95.40
2017-09-13T00:31:04.684Z,95.30
2017-09-13T00:33:32.112Z,95.30
2017-09-13T00:35:59.568Z,95.30
2017-09-13T00:38:26.986Z,95.30
2017-09-13T00:40:54.413Z,95.50
2017-09-13T00:43:21.975Z,95.20
2017-09-13T00:45:49.427Z,95.20
2017-09-13T00:48:16.863Z,95.30
2017-09-13T00:50:44.292Z,95.30
2017-09-13T00:53:13.216Z,95.20
2017-09-13T00:55:40.635Z,95.20
2017-09-13T00:58:08.847Z,95.30
2017-09-13T01:00:37.327Z,95.60
2017-09-13T01:03:04.817Z,95.30
2017-09-13T01:05:32.261Z,95.20
2017-09-13T01:07:59.663Z,95.30
2017-09-13T01:10:27.159Z,95.30
2017-09-13T01:12:54.584Z,95.20
2017-09-13T01:15:22.065Z,95.30
2017-09-13T01:17:50.262Z,95.20
2017-09-13T01:20:17.679Z,95.20
2017-09-13T01:22:45.098Z,95.10
2017-09-13T01:25:13.326Z,95.20
2017-09-13T01:27:40.784Z,94.90
2017-09-13T01:30:08.188Z,94.70
2017-09-13T01:32:36.362Z,94.50
2017-09-13T01:35:04.591Z,94.50
2017-09-13T01:37:32.029Z,94.50
2017-09-13T01:39:59.430Z,94.40
2017-09-13T01:42:28.453Z,94.40
2017-09-13T01:44:55.852Z,94.40
2017-09-13T01:47:23.275Z,94.20
2017-09-13T01:49:51.458Z,94.10
2017-09-13T01:52:18.863Z,94.10
2017-09-13T01:54:46.287Z,94.10
2017-09-13T01:57:13.699Z,94.10
2017-09-13T01:59:41.867Z,94.20
2017-09-13T02:02:10.050Z,94.10
2017-09-13T02:04:38.762Z,94.10
2017-09-13T02:07:06.164Z,94.00
2017-09-13T02:09:33.594Z,94.10
2017-09-13T02:12:01.023Z,94.10
2017-09-13T02:14:28.432Z,94.00
2017-09-13T02:16:57.389Z,94.20
2017-09-13T02:19:24.856Z,94.10
2017-09-13T02:21:52.284Z,94.20
2017-09-13T02:24:19.701Z,94.10
2017-09-13T02:26:47.126Z,94.10
2017-09-13T02:29:14.536Z,94.30
2017-09-13T02:31:41.983Z,94.40
2017-09-13T02:34:10.216Z,94.40
2017-09-13T02:36:37.920Z,94.40
2017-09-13T02:39:06.150Z,94.80
2017-09-13T02:41:33.629Z,94.50
2017-09-13T02:44:01.027Z,94.80
2017-09-13T02:46:28.457Z,94.60
2017-09-13T02:48:55.981Z,94.60
2017-09-13T02:51:23.750Z,94.50
2017-09-13T02:53:51.203Z,94.70
2017-09-13T02:56:18.610Z,94.70
2017-09-13T02:58:46.038Z,94.60
2017-09-13T03:01:13.480Z,94.60
2017-09-13T03:03:40.893Z,94.70
2017-09-13T03:06:08.315Z,94.80
2017-09-13T03:08:35.753Z,95.00
2017-09-13T03:11:03.178Z,94.90
2017-09-13T03:13:30.607Z,94.50
2017-09-13T03:15:58.778Z,94.60
2017-09-13T03:18:27.447Z,94.20
2017-09-13T03:20:55.801Z,94.00
2017-09-13T03:23:23.204Z,94.00
2017-09-13T03:25:50.741Z,94.10
2017-09-13T03:28:18.244Z,94.00
2017-09-13T03:30:45.656Z,93.90
2017-09-13T03:33:13.839Z,94.30
2017-09-13T03:35:42.047Z,94.70
2017-09-13T03:38:09.464Z,94.70
2017-09-13T03:40:36.966Z,94.70
2017-09-13T03:43:04.502Z,95.40
2017-09-13T03:45:32.087Z,95.80
2017-09-13T03:47:59.495Z,96.20
2017-09-13T03:50:27.697Z,96.40
2017-09-13T03:52:55.131Z,96.30
2017-09-13T03:55:23.322Z,96.70
2017-09-13T03:57:50.803Z,96.70
2017-09-13T04:00:18.237Z,96.60
2017-09-13T04:02:45.894Z,97.00
2017-09-13T04:05:13.331Z,97.00
2017-09-13T04:07:41.515Z,97.90
2017-09-13T04:10:09.699Z,97.50
2017-09-13T04:12:37.126Z,97.50
2017-09-13T04:15:05.359Z,97.80
2017-09-13T04:17:32.786Z,97.80
2017-09-13T04:20:00.224Z,97.80
2017-09-13T04:22:28.419Z,98.70
2017-09-13T04:24:55.847Z,98.60
2017-09-13T04:27:24.027Z,99.00
2017-09-13T04:29:53.063Z,99.30
2017-09-13T04:32:20.486Z,99.30
2017-09-13T04:34:47.933Z,99.20
2017-09-13T04:37:16.138Z,99.40
2017-09-13T04:39:43.575Z,99.40
2017-09-13T04:42:11.013Z,99.50
2017-09-13T04:44:39.199Z,99.80
2017-09-13T04:47:06.647Z,99.70
2017-09-13T04:49:34.876Z,99.90
2017-09-13T04:52:02.295Z,99.90
2017-09-13T04:54:29.699Z,99.90
2017-09-13T04:56:57.918Z,99.90
2017-09-13T04:59:25.329Z,99.90
2017-09-13T05:01:53.540Z,99.90
2017-09-13T05:04:21.718Z,99.90
2017-09-13T05:06:49.170Z,99.90
2017-09-13T05:09:17.354Z,99.90
2017-09-13T05:11:44.802Z,99.90
2017-09-13T05:14:13.000Z,99.90
2017-09-13T05:16:40.434Z,99.90
2017-09-13T05:19:08.622Z,99.90
2017-09-13T05:21:36.064Z,99.90
2017-09-13T05:24:04.341Z,99.90
2017-09-13T05:26:32.522Z,99.90
2017-09-13T05:28:59.962Z,99.90
2017-09-13T05:31:27.384Z,99.90
2017-09-13T05:33:54.800Z,99.90
2017-09-13T05:36:22.314Z,99.90
2017-09-13T05:38:49.743Z,99.90
2017-09-13T05:41:17.154Z,99.90
2017-09-13T05:43:44.597Z,99.90
2017-09-13T05:46:12.798Z,99.90
2017-09-13T05:48:40.304Z,99.90
2017-09-13T05:51:09.222Z,99.90
2017-09-13T05:53:37.427Z,99.90
2017-09-13T05:56:04.854Z,99.90
2017-09-13T05:58:33.074Z,99.90
2017-09-13T06:01:00.518Z,99.90
2017-09-13T06:03:27.976Z,99.90
2017-09-13T06:05:55.417Z,99.90
2017-09-13T06:08:23.623Z,99.90
2017-09-13T06:10:51.043Z,99.90
2017-09-13T06:13:18.454Z,99.90
2017-09-13T06:15:47.395Z,99.90
2017-09-13T06:18:15.588Z,99.90
2017-09-13T06:20:43.139Z,99.90
2017-09-13T06:23:10.587Z,99.90
2017-09-13T06:25:38.025Z,99.90
2017-09-13T06:28:06.221Z,99.90
2017-09-13T06:30:33.699Z,99.90
2017-09-13T06:33:01.128Z,99.90
2017-09-13T06:35:28.624Z,99.90
2017-09-13T06:37:56.091Z,99.90
2017-09-13T06:40:23.499Z,99.90
2017-09-13T06:42:50.934Z,99.90
2017-09-13T06:45:19.122Z,99.90
2017-09-13T06:47:47.304Z,99.90
2017-09-13T06:50:14.791Z,99.90
2017-09-13T06:52:42.220Z,99.90
2017-09-13T06:55:10.420Z,99.90
2017-09-13T06:57:37.826Z,99.90
2017-09-13T07:00:06.139Z,99.90
2017-09-13T07:02:33.559Z,99.90
2017-09-13T07:05:01.030Z,99.90
2017-09-13T07:07:29.231Z,99.90
2017-09-13T07:09:56.659Z,99.90
2017-09-13T07:12:24.102Z,99.90
2017-09-13T07:14:51.542Z,99.90
2017-09-13T07:17:19.747Z,99.90
2017-09-13T07:19:47.167Z,99.90
2017-09-13T07:22:14.580Z,99.90
2017-09-13T07:24:42.048Z,99.90
2017-09-13T07:27:10.129Z,99.90
2017-09-13T07:29:37.568Z,99.90
2017-09-13T07:32:05.024Z,99.90
2017-09-13T07:34:32.576Z,99.90
2017-09-13T07:37:00.010Z,99.90
2017-09-13T07:39:28.225Z,99.90
2017-09-13T07:41:55.691Z,99.90
2017-09-13T07:44:23.131Z,99.90
2017-09-13T07:46:50.567Z,99.90
2017-09-13T07:49:18.957Z,99.90
2017-09-13T07:51:46.381Z,99.90
2017-09-13T07:54:13.793Z,99.90
2017-09-13T07:56:41.240Z,99.90
2017-09-13T07:59:08.671Z,99.90
2017-09-13T08:01:36.091Z,99.90
2017-09-13T08:04:04.282Z,99.90
2017-09-13T08:06:32.462Z,99.50
2017-09-13T08:08:59.954Z,99.40
2017-09-13T08:11:27.377Z,99.20
2017-09-13T08:13:56.180Z,98.10
2017-09-13T08:16:23.592Z,98.10
2017-09-13T08:18:51.010Z,97.70
2017-09-13T08:21:18.425Z,97.40
2017-09-13T08:23:46.736Z,96.70
2017-09-13T08:26:14.167Z,96.70
2017-09-13T08:28:41.781Z,96.60
2017-09-13T08:31:09.201Z,96.50
2017-09-13T08:33:36.750Z,96.20
2017-09-13T08:36:04.182Z,95.80
2017-09-13T08:38:32.369Z,95.00
2017-09-13T08:40:59.782Z,95.00
2017-09-13T08:43:27.255Z,95.10
2017-09-13T08:45:54.679Z,95.10
2017-09-13T08:48:22.098Z,94.70
2017-09-13T08:50:49.571Z,93.60
2017-09-13T08:53:16.998Z,93.30
2017-09-13T08:55:44.437Z,93.20
2017-09-13T08:58:11.827Z,92.80
2017-09-13T09:00:39.239Z,92.20
2017-09-13T09:03:06.695Z,92.00
2017-09-13T09:05:34.878Z,91.30
2017-09-13T09:08:02.324Z,91.30
2017-09-13T09:10:30.495Z,90.60
2017-09-13T09:12:58.007Z,90.60
2017-09-13T09:15:25.463Z,90.50
2017-09-13T09:17:52.924Z,90.50
2017-09-13T09:20:20.358Z,90.30
2017-09-13T09:22:48.528Z,89.90
2017-09-13T09:25:15.965Z,90.00
2017-09-13T09:27:43.378Z,89.80
2017-09-13T09:30:10.849Z,89.50
2017-09-13T09:32:38.271Z,89.40
2017-09-13T09:35:05.815Z,89.40
2017-09-13T09:37:34.703Z,89.00
2017-09-13T09:40:02.287Z,89.00
2017-09-13T09:42:29.691Z,89.30
2017-09-13T09:44:57.134Z,89.20
2017-09-13T09:47:24.547Z,87.90
2017-09-13T09:49:51.958Z,87.20
2017-09-13T09:52:20.702Z,87.60
2017-09-13T09:54:48.187Z,86.70
2017-09-13T09:57:15.611Z,87.00
2017-09-13T09:59:43.047Z,88.50
2017-09-13T10:02:10.467Z,88.90
2017-09-13T10:04:38.785Z,90.30
2017-09-13T10:07:07.285Z,90.20
2017-09-13T10:09:34.747Z,90.20
2017-09-13T10:12:02.171Z,90.00
2017-09-13T10:14:29.600Z,90.30
2017-09-13T10:16:57.270Z,88.80
2017-09-13T10:19:25.467Z,90.10
2017-09-13T10:21:52.879Z,90.10
2017-09-13T10:24:21.812Z,91.90
2017-09-13T10:26:49.226Z,91.90
2017-09-13T10:29:18.164Z,96.10
2017-09-13T10:31:45.573Z,96.10
2017-09-13T10:34:14.510Z,98.30
2017-09-13T10:36:41.923Z,98.40
2017-09-13T10:39:09.342Z,99.10
2017-09-13T10:41:36.754Z,99.60
2017-09-13T10:44:04.975Z,99.90
2017-09-13T10:46:32.383Z,99.90
2017-09-13T10:49:00.606Z,97.40
2017-09-13T10:51:28.049Z,97.40
2017-09-13T10:53:55.471Z,97.40
2017-09-13T10:56:23.666Z,97.60
2017-09-13T10:58:51.845Z,98.10
2017-09-13T11:01:19.291Z,98.10
2017-09-13T11:03:47.977Z,97.70
2017-09-13T11:06:15.381Z,97.70
2017-09-13T11:08:42.805Z,98.40
2017-09-13T11:11:10.224Z,97.80
2017-09-13T11:13:38.414Z,97.60
2017-09-13T11:16:06.737Z,97.60
2017-09-13T11:18:34.155Z,96.20
2017-09-13T11:21:01.580Z,95.70
2017-09-13T11:23:29.782Z,93.70
2017-09-13T11:25:57.262Z,93.30
2017-09-13T11:28:24.679Z,92.00
2017-09-13T11:30:52.894Z,90.80
2017-09-13T11:33:20.345Z,90.80
2017-09-13T11:35:47.755Z,91.20
2017-09-13T11:38:15.228Z,90.00
2017-09-13T11:40:42.639Z,87.80
2017-09-13T11:43:10.895Z,83.40
2017-09-13T11:45:38.326Z,78.50
2017-09-13T11:48:05.784Z,78.10
2017-09-13T11:50:33.978Z,76.30
2017-09-13T11:53:01.392Z,76.30
2017-09-13T11:55:29.590Z,69.40
2017-09-13T11:57:57.473Z,69.40
2017-09-13T12:00:24.894Z,70.00
2017-09-13T12:02:53.107Z,73.80
2017-09-13T12:05:20.541Z,73.60
2017-09-13T12:07:47.951Z,75.40
2017-09-13T12:10:15.379Z,73.50
2017-09-13T12:12:42.823Z,75.90
2017-09-13T12:15:10.265Z,76.60
2017-09-13T12:17:37.707Z,76.20
2017-09-13T12:20:05.895Z,71.50
2017-09-13T12:22:33.379Z,71.20
2017-09-13T12:25:01.453Z,67.40
2017-09-13T12:27:28.914Z,61.90
2017-09-13T12:29:56.337Z,57.20
2017-09-13T12:32:23.763Z,55.90
2017-09-13T12:34:51.199Z,54.20
2017-09-13T12:37:18.607Z,52.60
2017-09-13T12:39:46.027Z,53.70
2017-09-13T12:42:13.438Z,52.10
2017-09-13T12:44:40.874Z,51.30
2017-09-13T12:47:08.283Z,51.20
2017-09-13T12:49:35.715Z,50.60
2017-09-13T12:52:03.171Z,50.50
2017-09-13T12:54:30.625Z,51.80
2017-09-13T12:56:58.024Z,50.20
2017-09-13T12:59:25.439Z,48.40
2017-09-13T13:01:54.331Z,48.60
2017-09-13T13:04:21.755Z,48.90
2017-09-13T13:06:49.183Z,49.20
2017-09-13T13:09:17.386Z,50.00
2017-09-13T13:11:44.811Z,49.90
2017-09-13T13:14:13.089Z,46.40
2017-09-13T13:16:40.524Z,46.30
2017-09-13T13:19:07.957Z,46.50
2017-09-13T13:21:35.374Z,45.40
2017-09-13T13:24:03.561Z,42.80
2017-09-13T13:26:31.040Z,42.60
2017-09-13T13:28:59.003Z,42.50
2017-09-13T13:31:26.456Z,42.20
2017-09-13T13:33:53.874Z,41.70
2017-09-13T13:36:22.083Z,41.20
2017-09-13T13:38:49.530Z,41.10
2017-09-13T13:41:16.963Z,40.90
2017-09-13T13:43:44.488Z,40.70
2017-09-13T13:46:12.118Z,41.40
2017-09-13T13:48:39.559Z,42.60
2017-09-13T13:51:07.760Z,42.90
2017-09-13T13:53:35.208Z,42.90
2017-09-13T13:56:02.656Z,45.90
2017-09-13T13:58:30.081Z,47.30
2017-09-13T14:00:58.295Z,51.60
2017-09-13T14:03:25.746Z,51.50
2017-09-13T14:05:53.859Z,50.70
2017-09-13T14:08:21.282Z,49.90
2017-09-13T14:10:48.728Z,49.60
2017-09-13T14:13:16.133Z,47.80
2017-09-13T14:15:43.965Z,46.90
2017-09-13T14:18:11.405Z,45.90
2017-09-13T14:20:38.807Z,43.20
2017-09-13T14:23:07.003Z,39.80
2017-09-13T14:25:35.210Z,38.90
2017-09-13T14:28:03.395Z,39.30
2017-09-13T14:30:30.847Z,39.30
2017-09-13T14:32:58.312Z,40.60
2017-09-13T14:35:25.754Z,42.60
2017-09-13T14:37:53.463Z,42.40
2017-09-13T14:40:20.888Z,40.80
2017-09-13T14:42:48.299Z,38.90
2017-09-13T14:45:16.507Z,39.20
2017-09-13T14:47:43.939Z,39.20
2017-09-13T14:50:11.372Z,38.60
2017-09-13T14:52:38.771Z,38.40
2017-09-13T14:55:06.187Z,37.90
2017-09-13T14:57:34.375Z,39.20
2017-09-13T15:00:01.799Z,39.10
2017-09-13T15:02:29.275Z,39.10
2017-09-13T15:04:56.774Z,38.90
2017-09-13T15:07:24.201Z,38.40
2017-09-13T15:09:52.411Z,39.10
2017-09-13T15:12:20.434Z,39.00
2017-09-13T15:14:48.649Z,40.00
2017-09-13T15:17:16.074Z,40.00
2017-09-13T15:19:44.276Z,39.90
2017-09-13T15:22:11.838Z,39.90
2017-09-13T15:24:39.280Z,39.70
2017-09-13T15:27:07.468Z,38.90
2017-09-13T15:29:34.928Z,38.90
2017-09-13T15:32:02.359Z,38.40
2017-09-13T15:34:30.557Z,38.90
2017-09-13T15:36:57.983Z,38.90
2017-09-13T15:39:25.413Z,38.10
2017-09-13T15:41:52.830Z,38.20
2017-09-13T15:44:20.280Z,38.30
2017-09-13T15:46:47.675Z,38.50
2017-09-13T15:49:15.114Z,38.30
2017-09-13T15:51:42.552Z,37.70
2017-09-13T15:54:09.960Z,37.80
2017-09-13T15:56:38.153Z,38.80
2017-09-13T15:59:05.558Z,38.80
2017-09-13T16:01:33.004Z,38.90
2017-09-13T16:04:00.440Z,38.50
2017-09-13T16:06:27.898Z,39.10
2017-09-13T16:08:55.317Z,39.70
2017-09-13T16:11:23.534Z,39.10
2017-09-13T16:13:51.017Z,39.10
2017-09-13T16:16:18.463Z,38.60
2017-09-13T16:18:45.899Z,38.00
2017-09-13T16:21:13.331Z,39.20
2017-09-13T16:23:41.560Z,40.20
2017-09-13T16:26:09.012Z,40.20
2017-09-13T16:28:36.440Z,40.40
2017-09-13T16:31:03.872Z,40.90
2017-09-13T16:33:32.051Z,42.10
2017-09-13T16:35:59.477Z,42.10
2017-09-13T16:38:26.910Z,43.10
2017-09-13T16:40:54.336Z,42.90
2017-09-13T16:43:21.747Z,43.70
2017-09-13T16:45:49.177Z,44.10
2017-09-13T16:48:16.607Z,45.10
2017-09-13T16:50:44.244Z,46.70
2017-09-13T16:53:11.645Z,48.30
2017-09-13T16:55:39.882Z,49.30
2017-09-13T16:58:07.294Z,50.20
2017-09-13T17:00:35.488Z,51.40
2017-09-13T17:03:03.679Z,52.40
2017-09-13T17:05:31.103Z,51.80
2017-09-13T17:08:00.047Z,53.10
2017-09-13T17:10:27.819Z,53.10
2017-09-13T17:12:55.271Z,53.30
2017-09-13T17:15:22.703Z,53.40
2017-09-13T17:17:50.883Z,53.70
2017-09-13T17:20:18.299Z,53.70
2017-09-13T17:22:45.755Z,53.80
2017-09-13T17:25:13.168Z,55.10
2017-09-13T17:27:40.654Z,54.50
2017-09-13T17:30:08.092Z,54.70
2017-09-13T17:32:36.184Z,54.70
2017-09-13T17:35:03.591Z,55.10
2017-09-13T17:37:31.007Z,55.20
2017-09-13T17:39:59.939Z,56.20
2017-09-13T17:42:27.366Z,56.10
2017-09-13T17:44:54.778Z,56.20
2017-09-13T17:47:22.209Z,56.40
2017-09-13T17:49:49.635Z,56.70
2017-09-13T17:52:17.895Z,57.20
2017-09-13T17:54:45.319Z,57.10
2017-09-13T17:57:12.877Z,57.40
2017-09-13T17:59:40.287Z,57.30
2017-09-13T18:02:08.459Z,57.50
2017-09-13T18:04:36.003Z,57.50
2017-09-13T18:07:03.416Z,57.60
2017-09-13T18:09:30.847Z,57.90
2017-09-13T18:11:59.069Z,58.10
2017-09-13T18:14:26.567Z,58.30
2017-09-13T18:16:54.739Z,58.60
2017-09-13T18:19:22.970Z,58.60
2017-09-13T18:21:50.419Z,58.60
2017-09-13T18:24:17.859Z,58.70
2017-09-13T18:26:45.271Z,58.90
2017-09-13T18:29:14.210Z,59.20
2017-09-13T18:31:41.611Z,59.20
2017-09-13T18:34:10.559Z,59.50
2017-09-13T18:36:37.965Z,59.50
2017-09-13T18:39:05.391Z,59.80
2017-09-13T18:41:32.822Z,59.90
2017-09-13T18:44:00.243Z,59.90
2017-09-13T18:46:27.702Z,59.80
2017-09-13T18:48:55.915Z,59.70
2017-09-13T18:51:23.342Z,59.60
2017-09-13T18:53:50.747Z,59.80
2017-09-13T18:56:18.307Z,59.90
2017-09-13T18:58:45.740Z,60.10
2017-09-13T19:01:13.150Z,59.90
2017-09-13T19:03:40.578Z,59.90
2017-09-13T19:06:08.827Z,59.90
2017-09-13T19:08:36.714Z,60.10
2017-09-13T19:11:04.253Z,60.10
2017-09-13T19:13:31.711Z,60.10
2017-09-13T19:15:59.156Z,60.20
2017-09-13T19:18:26.575Z,60.20
2017-09-13T19:20:54.034Z,60.40
2017-09-13T19:23:21.462Z,60.50
2017-09-13T19:25:48.867Z,60.60
2017-09-13T19:28:16.315Z,60.90
2017-09-13T19:30:44.500Z,61.50
2017-09-13T19:33:11.932Z,61.40
2017-09-13T19:35:39.341Z,61.90
2017-09-13T19:38:06.903Z,62.10
2017-09-13T19:40:35.191Z,63.80
2017-09-13T19:43:02.591Z,64.80
2017-09-13T19:45:30.004Z,66.30
2017-09-13T19:47:57.541Z,68.40
2017-09-13T19:50:24.959Z,70.30
2017-09-13T19:52:52.485Z,71.10
2017-09-13T19:55:19.903Z,72.40
2017-09-13T19:57:47.462Z,73.70
2017-09-13T20:00:14.907Z,74.30
2017-09-13T20:02:42.341Z,74.70
2017-09-13T20:05:10.525Z,74.20
2017-09-13T20:07:38.612Z,74.30
2017-09-13T20:10:06.195Z,74.20
2017-09-13T20:12:33.625Z,74.00
2017-09-13T20:15:01.043Z,73.60
2017-09-13T20:17:28.970Z,73.60
2017-09-13T20:19:56.419Z,73.70
2017-09-13T20:22:24.567Z,73.60
2017-09-13T20:24:52.047Z,74.00
2017-09-13T20:27:19.494Z,74.40
2017-09-13T20:29:47.667Z,74.30
2017-09-13T20:32:15.133Z,74.40
2017-09-13T20:34:42.539Z,74.50
2017-09-13T20:37:09.971Z,73.70
2017-09-13T20:39:37.402Z,73.80
2017-09-13T20:42:04.842Z,73.50
2017-09-13T20:44:32.326Z,73.80
2017-09-13T20:46:59.738Z,73.60
2017-09-13T20:49:27.992Z,73.70
2017-09-13T20:51:56.176Z,73.70
2017-09-13T20:54:24.400Z,74.10
2017-09-13T20:56:51.865Z,74.10
2017-09-13T20:59:19.291Z,74.20
2017-09-13T21:01:46.715Z,74.60
2017-09-13T21:04:14.127Z,74.70
2017-09-13T21:06:41.691Z,75.00
2017-09-13T21:09:09.121Z,75.20
2017-09-13T21:11:36.528Z,76.00
2017-09-13T21:14:03.953Z,76.20
2017-09-13T21:16:31.409Z,76.60
2017-09-13T21:18:58.836Z,77.20
2017-09-13T21:21:26.328Z,77.70
2017-09-13T21:23:53.779Z,77.80
2017-09-13T21:26:21.232Z,77.90
2017-09-13T21:28:48.698Z,78.20
2017-09-13T21:31:16.119Z,78.70
2017-09-13T21:33:43.534Z,79.00
2017-09-13T21:36:10.960Z,79.40
2017-09-13T21:38:38.463Z,79.80
2017-09-13T21:41:06.652Z,81.70
2017-09-13T21:43:34.099Z,80.90
2017-09-13T21:46:01.527Z,80.70
2017-09-13T21:48:29.021Z,81.10
2017-09-13T21:50:56.555Z,81.30
2017-09-13T21:53:24.042Z,81.10
2017-09-13T21:55:52.468Z,81.90
2017-09-13T21:58:19.915Z,81.70
2017-09-13T22:00:47.356Z,82.00
2017-09-13T22:03:14.803Z,82.30
2017-09-13T22:05:42.640Z,82.50
2017-09-13T22:08:10.853Z,83.30
2017-09-13T22:10:38.330Z,83.30
2017-09-13T22:13:05.827Z,83.90
2017-09-13T22:15:33.260Z,84.20
2017-09-13T22:18:00.691Z,84.70
2017-09-13T22:20:28.111Z,84.90
2017-09-13T22:22:55.637Z,84.90
2017-09-13T22:25:23.147Z,84.90
2017-09-13T22:27:51.528Z,86.10
2017-09-13T22:30:18.968Z,86.10
2017-09-13T22:32:46.530Z,86.40
2017-09-13T22:35:14.738Z,87.30
2017-09-13T22:37:42.155Z,87.30
2017-09-13T22:40:09.694Z,88.30
2017-09-13T22:42:37.129Z,88.60
2017-09-13T22:45:04.572Z,88.90
2017-09-13T22:47:32.154Z,89.50
2017-09-13T22:49:59.611Z,89.70
2017-09-13T22:52:27.071Z,90.30
2017-09-13T22:54:54.507Z,90.20
2017-09-13T22:57:21.974Z,90.50
2017-09-13T22:59:49.510Z,90.50
2017-09-13T23:02:16.922Z,90.60
2017-09-13T23:04:44.376Z,90.50
2017-09-13T23:07:12.643Z,90.60
2017-09-13T23:09:40.077Z,90.60
2017-09-13T23:12:07.566Z,90.50
2017-09-13T23:14:35.772Z,90.40
2017-09-13T23:17:03.414Z,90.40
2017-09-13T23:19:30.822Z,90.40
2017-09-13T23:21:59.595Z,90.30
2017-09-13T23:24:27.062Z,90.30
2017-09-13T23:29:28.723Z,90.50
2017-09-13T23:31:56.147Z,90.30
2017-09-13T23:34:23.637Z,90.20
2017-09-13T23:36:51.062Z,90.30
2017-09-13T23:39:18.475Z,90.20
2017-09-13T23:41:45.915Z,90.20
2017-09-13T23:44:13.362Z,90.10
2017-09-13T23:46:40.817Z,90.10
2017-09-13T23:49:08.227Z,90.20
2017-09-13T23:51:36.399Z,90.00
2017-09-13T23:54:04.575Z,89.80
2017-09-13T23:56:32.744Z,89.70
2017-09-13T23:59:01.019Z,89.70
